sensor_id;sensor_type;location;lat;lon;timestamp;P1;durP1;ratioP1;P2;durP2;ratioP2
18206;SDS011;9229;52.354;20.886;2024-01-10T00:02:33;59.47;;;21.57;;
18206;SDS011;9229;52.354;20.886;2024-01-10T00:07:36;53.07;;;21.07;;
18206;SDS011;9229;52.354;20.886;2024-01-10T00:12:38;51.57;;;19.03;;
18206;SDS011;9229;52.354;20.886;2024-01-10T00:17:43;44.30;;;19.27;;
18206;SDS011;9229;52.354;20.886;2024-01-10T00:22:47;44.90;;;19.53;;
18206;SDS011;9229;52.354;20.886;2024-01-10T00:27:49;51.23;;;21.27;;
18206;SDS011;9229;52.354;20.886;2024-01-10T00:32:51;61.60;;;20.37;;
18206;SDS011;9229;52.354;20.886;2024-01-10T00:37:54;51.27;;;20.47;;
18206;SDS011;9229;52.354;20.886;2024-01-10T00:42:57;63.50;;;23.53;;
18206;SDS011;9229;52.354;20.886;2024-01-10T00:47:58;52.80;;;21.40;;
18206;SDS011;9229;52.354;20.886;2024-01-10T00:53:02;50.23;;;19.80;;
18206;SDS011;9229;52.354;20.886;2024-01-10T00:58:04;61.13;;;21.77;;
18206;SDS011;9229;52.354;20.886;2024-01-10T01:03:07;52.87;;;20.57;;
18206;SDS011;9229;52.354;20.886;2024-01-10T01:08:10;61.90;;;22.37;;
18206;SDS011;9229;52.354;20.886;2024-01-10T01:13:12;52.57;;;21.97;;
18206;SDS011;9229;52.354;20.886;2024-01-10T01:18:14;42.97;;;19.37;;
18206;SDS011;9229;52.354;20.886;2024-01-10T01:23:17;54.90;;;21.37;;
18206;SDS011;9229;52.354;20.886;2024-01-10T01:28:19;51.53;;;19.53;;
18206;SDS011;9229;52.354;20.886;2024-01-10T01:33:21;41.80;;;17.20;;
18206;SDS011;9229;52.354;20.886;2024-01-10T01:38:25;54.10;;;21.17;;
18206;SDS011;9229;52.354;20.886;2024-01-10T01:43:27;58.40;;;19.37;;
18206;SDS011;9229;52.354;20.886;2024-01-10T01:48:29;49.50;;;18.93;;
18206;SDS011;9229;52.354;20.886;2024-01-10T01:53:32;39.03;;;18.07;;
18206;SDS011;9229;52.354;20.886;2024-01-10T01:58:36;58.87;;;19.83;;
18206;SDS011;9229;52.354;20.886;2024-01-10T02:03:38;51.30;;;19.17;;
18206;SDS011;9229;52.354;20.886;2024-01-10T02:08:42;42.20;;;16.70;;
18206;SDS011;9229;52.354;20.886;2024-01-10T02:13:44;45.20;;;19.43;;
18206;SDS011;9229;52.354;20.886;2024-01-10T02:18:46;48.53;;;18.37;;
18206;SDS011;9229;52.354;20.886;2024-01-10T02:23:49;56.50;;;19.70;;
18206;SDS011;9229;52.354;20.886;2024-01-10T02:28:53;33.13;;;18.07;;
18206;SDS011;9229;52.354;20.886;2024-01-10T02:33:55;44.43;;;19.30;;
18206;SDS011;9229;52.354;20.886;2024-01-10T02:38:57;54.07;;;21.10;;
18206;SDS011;9229;52.354;20.886;2024-01-10T02:44:00;61.63;;;21.50;;
18206;SDS011;9229;52.354;20.886;2024-01-10T02:49:02;45.30;;;16.60;;
18206;SDS011;9229;52.354;20.886;2024-01-10T02:54:04;56.70;;;19.50;;
18206;SDS011;9229;52.354;20.886;2024-01-10T02:59:07;54.87;;;19.13;;
18206;SDS011;9229;52.354;20.886;2024-01-10T03:04:09;52.67;;;19.97;;
18206;SDS011;9229;52.354;20.886;2024-01-10T03:09:12;56.93;;;21.50;;
18206;SDS011;9229;52.354;20.886;2024-01-10T03:14:15;49.97;;;20.50;;
18206;SDS011;9229;52.354;20.886;2024-01-10T03:19:17;62.70;;;20.83;;
18206;SDS011;9229;52.354;20.886;2024-01-10T03:24:19;37.73;;;19.67;;
18206;SDS011;9229;52.354;20.886;2024-01-10T03:29:25;56.17;;;18.07;;
18206;SDS011;9229;52.354;20.886;2024-01-10T03:34:27;54.00;;;21.20;;
18206;SDS011;9229;52.354;20.886;2024-01-10T03:39:29;59.03;;;20.73;;
18206;SDS011;9229;52.354;20.886;2024-01-10T03:44:33;55.33;;;20.10;;
18206;SDS011;9229;52.354;20.886;2024-01-10T03:49:35;56.60;;;21.10;;
18206;SDS011;9229;52.354;20.886;2024-01-10T03:54:37;43.07;;;18.57;;
18206;SDS011;9229;52.354;20.886;2024-01-10T03:59:42;47.73;;;21.10;;
18206;SDS011;9229;52.354;20.886;2024-01-10T04:04:44;53.63;;;21.77;;
18206;SDS011;9229;52.354;20.886;2024-01-10T04:09:46;48.33;;;19.20;;
18206;SDS011;9229;52.354;20.886;2024-01-10T04:14:49;57.23;;;22.10;;
18206;SDS011;9229;52.354;20.886;2024-01-10T04:19:51;55.90;;;18.57;;
18206;SDS011;9229;52.354;20.886;2024-01-10T04:24:55;54.27;;;22.00;;
18206;SDS011;9229;52.354;20.886;2024-01-10T04:29:59;61.10;;;20.13;;
18206;SDS011;9229;52.354;20.886;2024-01-10T04:35:01;44.83;;;19.53;;
18206;SDS011;9229;52.354;20.886;2024-01-10T04:40:04;66.97;;;20.37;;
18206;SDS011;9229;52.354;20.886;2024-01-10T04:45:09;65.30;;;21.33;;
18206;SDS011;9229;52.354;20.886;2024-01-10T04:50:11;37.00;;;18.23;;
18206;SDS011;9229;52.354;20.886;2024-01-10T04:55:13;48.77;;;19.00;;
18206;SDS011;9229;52.354;20.886;2024-01-10T05:00:17;41.03;;;18.77;;
18206;SDS011;9229;52.354;20.886;2024-01-10T05:05:19;68.60;;;24.37;;
18206;SDS011;9229;52.354;20.886;2024-01-10T05:10:23;65.40;;;22.63;;
18206;SDS011;9229;52.354;20.886;2024-01-10T05:15:27;86.80;;;30.47;;
18206;SDS011;9229;52.354;20.886;2024-01-10T05:20:29;106.33;;;30.27;;
18206;SDS011;9229;52.354;20.886;2024-01-10T05:25:32;69.17;;;23.03;;
18206;SDS011;9229;52.354;20.886;2024-01-10T05:30:35;60.77;;;23.40;;
18206;SDS011;9229;52.354;20.886;2024-01-10T05:35:37;52.93;;;21.33;;
18206;SDS011;9229;52.354;20.886;2024-01-10T05:40:39;51.77;;;22.23;;
18206;SDS011;9229;52.354;20.886;2024-01-10T05:45:43;72.43;;;22.40;;
18206;SDS011;9229;52.354;20.886;2024-01-10T05:50:45;68.37;;;21.93;;
18206;SDS011;9229;52.354;20.886;2024-01-10T05:55:47;63.93;;;24.37;;
18206;SDS011;9229;52.354;20.886;2024-01-10T06:00:50;61.53;;;23.73;;
18206;SDS011;9229;52.354;20.886;2024-01-10T06:05:52;68.07;;;21.50;;
18206;SDS011;9229;52.354;20.886;2024-01-10T06:10:55;47.83;;;21.40;;
18206;SDS011;9229;52.354;20.886;2024-01-10T06:15:58;52.63;;;20.30;;
18206;SDS011;9229;52.354;20.886;2024-01-10T06:21:00;50.97;;;21.17;;
18206;SDS011;9229;52.354;20.886;2024-01-10T06:26:02;55.87;;;24.20;;
18206;SDS011;9229;52.354;20.886;2024-01-10T06:31:06;72.33;;;25.37;;
18206;SDS011;9229;52.354;20.886;2024-01-10T06:36:09;52.80;;;22.90;;
18206;SDS011;9229;52.354;20.886;2024-01-10T06:41:11;42.23;;;18.97;;
18206;SDS011;9229;52.354;20.886;2024-01-10T06:46:15;56.27;;;19.93;;
18206;SDS011;9229;52.354;20.886;2024-01-10T06:51:17;53.63;;;19.00;;
18206;SDS011;9229;52.354;20.886;2024-01-10T06:56:19;44.00;;;17.73;;
18206;SDS011;9229;52.354;20.886;2024-01-10T07:01:23;50.03;;;16.97;;
18206;SDS011;9229;52.354;20.886;2024-01-10T07:06:25;47.27;;;18.47;;
18206;SDS011;9229;52.354;20.886;2024-01-10T07:11:27;50.13;;;16.53;;
18206;SDS011;9229;52.354;20.886;2024-01-10T07:16:31;44.33;;;16.03;;
18206;SDS011;9229;52.354;20.886;2024-01-10T07:21:33;41.77;;;16.97;;
18206;SDS011;9229;52.354;20.886;2024-01-10T07:26:35;49.97;;;18.80;;
18206;SDS011;9229;52.354;20.886;2024-01-10T07:31:39;36.50;;;16.27;;
18206;SDS011;9229;52.354;20.886;2024-01-10T07:36:41;51.33;;;20.30;;
18206;SDS011;9229;52.354;20.886;2024-01-10T07:41:44;49.40;;;17.23;;
18206;SDS011;9229;52.354;20.886;2024-01-10T07:46:47;42.20;;;20.37;;
18206;SDS011;9229;52.354;20.886;2024-01-10T07:51:51;38.77;;;17.13;;
18206;SDS011;9229;52.354;20.886;2024-01-10T07:56:53;46.07;;;20.07;;
18206;SDS011;9229;52.354;20.886;2024-01-10T08:01:56;52.20;;;19.90;;
18206;SDS011;9229;52.354;20.886;2024-01-10T08:06:59;47.23;;;19.43;;
18206;SDS011;9229;52.354;20.886;2024-01-10T08:12:01;55.90;;;22.00;;
18206;SDS011;9229;52.354;20.886;2024-01-10T08:17:05;48.40;;;19.47;;
18206;SDS011;9229;52.354;20.886;2024-01-10T08:22:07;60.67;;;21.83;;
18206;SDS011;9229;52.354;20.886;2024-01-10T08:27:09;61.83;;;19.90;;
18206;SDS011;9229;52.354;20.886;2024-01-10T08:32:12;56.57;;;21.30;;
18206;SDS011;9229;52.354;20.886;2024-01-10T08:37:15;62.67;;;22.90;;
18206;SDS011;9229;52.354;20.886;2024-01-10T08:42:17;61.50;;;22.40;;
18206;SDS011;9229;52.354;20.886;2024-01-10T08:47:21;59.22;;;22.23;;
18206;SDS011;9229;52.354;20.886;2024-01-10T08:52:23;58.17;;;24.23;;
18206;SDS011;9229;52.354;20.886;2024-01-10T08:57:25;60.43;;;23.53;;
18206;SDS011;9229;52.354;20.886;2024-01-10T09:02:29;57.07;;;20.27;;
18206;SDS011;9229;52.354;20.886;2024-01-10T09:07:31;42.80;;;21.03;;
18206;SDS011;9229;52.354;20.886;2024-01-10T09:12:33;56.03;;;20.00;;
18206;SDS011;9229;52.354;20.886;2024-01-10T09:17:37;56.00;;;20.85;;
18206;SDS011;9229;52.354;20.886;2024-01-10T09:22:39;63.97;;;22.57;;
18206;SDS011;9229;52.354;20.886;2024-01-10T09:27:41;66.57;;;23.73;;
18206;SDS011;9229;52.354;20.886;2024-01-10T09:32:46;59.43;;;20.93;;
18206;SDS011;9229;52.354;20.886;2024-01-10T09:37:49;68.93;;;24.10;;
18206;SDS011;9229;52.354;20.886;2024-01-10T09:42:51;71.50;;;26.15;;
18206;SDS011;9229;52.354;20.886;2024-01-10T09:47:56;69.78;;;24.02;;
18206;SDS011;9229;52.354;20.886;2024-01-10T09:53:02;58.55;;;22.25;;
18206;SDS011;9229;52.354;20.886;2024-01-10T09:58:08;62.60;;;21.50;;
18206;SDS011;9229;52.354;20.886;2024-01-10T10:03:11;71.13;;;23.73;;
18206;SDS011;9229;52.354;20.886;2024-01-10T10:08:16;62.90;;;24.15;;
18206;SDS011;9229;52.354;20.886;2024-01-10T10:13:25;55.13;;;22.60;;
18206;SDS011;9229;52.354;20.886;2024-01-10T10:18:29;48.50;;;19.33;;
18206;SDS011;9229;52.354;20.886;2024-01-10T10:23:32;55.00;;;20.08;;
18206;SDS011;9229;52.354;20.886;2024-01-10T10:28:34;40.67;;;18.03;;
18206;SDS011;9229;52.354;20.886;2024-01-10T10:33:37;46.08;;;19.80;;
18206;SDS011;9229;52.354;20.886;2024-01-10T10:38:40;52.35;;;19.17;;
18206;SDS011;9229;52.354;20.886;2024-01-10T10:43:42;52.03;;;19.52;;
18206;SDS011;9229;52.354;20.886;2024-01-10T10:48:45;51.67;;;21.77;;
18206;SDS011;9229;52.354;20.886;2024-01-10T10:53:49;47.47;;;21.23;;
18206;SDS011;9229;52.354;20.886;2024-01-10T10:58:51;55.95;;;19.55;;
18206;SDS011;9229;52.354;20.886;2024-01-10T11:03:56;41.63;;;19.30;;
18206;SDS011;9229;52.354;20.886;2024-01-10T11:09:00;43.80;;;20.40;;
18206;SDS011;9229;52.354;20.886;2024-01-10T11:14:09;49.65;;;19.58;;
18206;SDS011;9229;52.354;20.886;2024-01-10T11:19:28;51.58;;;20.67;;
18206;SDS011;9229;52.354;20.886;2024-01-10T11:24:44;65.68;;;25.42;;
18206;SDS011;9229;52.354;20.886;2024-01-10T11:29:46;65.97;;;23.40;;
18206;SDS011;9229;52.354;20.886;2024-01-10T11:34:51;52.33;;;19.65;;
18206;SDS011;9229;52.354;20.886;2024-01-10T11:39:56;51.03;;;20.10;;
18206;SDS011;9229;52.354;20.886;2024-01-10T11:44:58;61.53;;;20.25;;
18206;SDS011;9229;52.354;20.886;2024-01-10T11:50:03;57.28;;;21.20;;
18206;SDS011;9229;52.354;20.886;2024-01-10T11:55:12;65.25;;;20.70;;
18206;SDS011;9229;52.354;20.886;2024-01-10T12:00:48;60.30;;;21.80;;
18206;SDS011;9229;52.354;20.886;2024-01-10T12:05:52;55.73;;;18.53;;
18206;SDS011;9229;52.354;20.886;2024-01-10T12:10:55;76.40;;;23.00;;
18206;SDS011;9229;52.354;20.886;2024-01-10T12:15:58;50.10;;;17.63;;
18206;SDS011;9229;52.354;20.886;2024-01-10T12:21:01;44.08;;;17.40;;
18206;SDS011;9229;52.354;20.886;2024-01-10T12:26:03;40.10;;;16.90;;
18206;SDS011;9229;52.354;20.886;2024-01-10T12:31:07;41.35;;;17.25;;
18206;SDS011;9229;52.354;20.886;2024-01-10T12:36:11;40.53;;;16.08;;
18206;SDS011;9229;52.354;20.886;2024-01-10T12:41:14;48.67;;;18.83;;
18206;SDS011;9229;52.354;20.886;2024-01-10T12:46:17;48.75;;;16.13;;
18206;SDS011;9229;52.354;20.886;2024-01-10T12:51:21;48.40;;;17.88;;
18206;SDS011;9229;52.354;20.886;2024-01-10T12:56:24;36.88;;;15.80;;
18206;SDS011;9229;52.354;20.886;2024-01-10T13:01:26;32.33;;;16.27;;
18206;SDS011;9229;52.354;20.886;2024-01-10T13:06:30;43.85;;;16.17;;
18206;SDS011;9229;52.354;20.886;2024-01-10T13:11:32;49.25;;;15.98;;
18206;SDS011;9229;52.354;20.886;2024-01-10T13:16:34;47.22;;;18.88;;
18206;SDS011;9229;52.354;20.886;2024-01-10T13:21:37;56.03;;;22.60;;
18206;SDS011;9229;52.354;20.886;2024-01-10T13:26:40;46.63;;;17.73;;
18206;SDS011;9229;52.354;20.886;2024-01-10T13:31:42;45.17;;;18.13;;
18206;SDS011;9229;52.354;20.886;2024-01-10T13:36:45;41.17;;;16.80;;
18206;SDS011;9229;52.354;20.886;2024-01-10T13:41:47;55.72;;;18.23;;
18206;SDS011;9229;52.354;20.886;2024-01-10T13:46:49;54.88;;;20.02;;
18206;SDS011;9229;52.354;20.886;2024-01-10T13:51:53;56.90;;;23.02;;
18206;SDS011;9229;52.354;20.886;2024-01-10T13:56:55;60.63;;;25.33;;
18206;SDS011;9229;52.354;20.886;2024-01-10T14:01:58;55.58;;;22.48;;
18206;SDS011;9229;52.354;20.886;2024-01-10T14:07:02;54.65;;;21.60;;
18206;SDS011;9229;52.354;20.886;2024-01-10T14:12:04;63.78;;;23.58;;
18206;SDS011;9229;52.354;20.886;2024-01-10T14:17:07;54.88;;;22.20;;
18206;SDS011;9229;52.354;20.886;2024-01-10T14:22:11;53.90;;;19.70;;
18206;SDS011;9229;52.354;20.886;2024-01-10T14:27:13;47.80;;;18.08;;
18206;SDS011;9229;52.354;20.886;2024-01-10T14:32:15;54.15;;;19.83;;
18206;SDS011;9229;52.354;20.886;2024-01-10T14:37:19;59.05;;;20.73;;
18206;SDS011;9229;52.354;20.886;2024-01-10T14:42:21;56.25;;;17.55;;
18206;SDS011;9229;52.354;20.886;2024-01-10T14:47:23;42.90;;;18.48;;
18206;SDS011;9229;52.354;20.886;2024-01-10T14:52:30;57.35;;;19.30;;
18206;SDS011;9229;52.354;20.886;2024-01-10T14:57:33;50.55;;;17.38;;
18206;SDS011;9229;52.354;20.886;2024-01-10T15:02:35;46.80;;;18.63;;
18206;SDS011;9229;52.354;20.886;2024-01-10T15:07:38;47.67;;;16.85;;
18206;SDS011;9229;52.354;20.886;2024-01-10T15:12:40;51.15;;;17.13;;
18206;SDS011;9229;52.354;20.886;2024-01-10T15:17:42;57.47;;;20.02;;
18206;SDS011;9229;52.354;20.886;2024-01-10T15:22:46;51.90;;;16.40;;
18206;SDS011;9229;52.354;20.886;2024-01-10T15:27:48;55.97;;;18.52;;
18206;SDS011;9229;52.354;20.886;2024-01-10T15:32:51;40.80;;;17.08;;
18206;SDS011;9229;52.354;20.886;2024-01-10T15:37:55;36.85;;;14.77;;
18206;SDS011;9229;52.354;20.886;2024-01-10T15:42:57;36.50;;;15.38;;
18206;SDS011;9229;52.354;20.886;2024-01-10T15:47:59;41.80;;;17.20;;
18206;SDS011;9229;52.354;20.886;2024-01-10T15:53:02;44.35;;;16.05;;
18206;SDS011;9229;52.354;20.886;2024-01-10T15:58:04;45.88;;;18.70;;
18206;SDS011;9229;52.354;20.886;2024-01-10T16:03:07;45.72;;;17.90;;
18206;SDS011;9229;52.354;20.886;2024-01-10T16:08:10;48.30;;;19.33;;
18206;SDS011;9229;52.354;20.886;2024-01-10T16:13:15;53.03;;;19.50;;
18206;SDS011;9229;52.354;20.886;2024-01-10T16:18:17;47.17;;;17.92;;
18206;SDS011;9229;52.354;20.886;2024-01-10T16:23:21;43.17;;;17.52;;
18206;SDS011;9229;52.354;20.886;2024-01-10T16:28:23;55.05;;;19.38;;
18206;SDS011;9229;52.354;20.886;2024-01-10T16:33:25;59.47;;;20.27;;
18206;SDS011;9229;52.354;20.886;2024-01-10T16:38:29;56.97;;;21.13;;
18206;SDS011;9229;52.354;20.886;2024-01-10T16:43:31;55.65;;;21.70;;
18206;SDS011;9229;52.354;20.886;2024-01-10T16:48:33;76.70;;;26.92;;
18206;SDS011;9229;52.354;20.886;2024-01-10T16:53:36;72.25;;;22.05;;
18206;SDS011;9229;52.354;20.886;2024-01-10T17:13:29;80.63;;;26.52;;
18206;SDS011;9229;52.354;20.886;2024-01-10T17:18:33;72.78;;;25.00;;
18206;SDS011;9229;52.354;20.886;2024-01-10T17:28:58;72.32;;;25.50;;
18206;SDS011;9229;52.354;20.886;2024-01-10T17:34:00;57.53;;;20.77;;
18206;SDS011;9229;52.354;20.886;2024-01-10T17:39:03;63.45;;;21.50;;
18206;SDS011;9229;52.354;20.886;2024-01-10T17:44:07;64.20;;;22.63;;
18206;SDS011;9229;52.354;20.886;2024-01-10T17:49:09;65.43;;;23.15;;
18206;SDS011;9229;52.354;20.886;2024-01-10T17:54:11;79.20;;;24.60;;
18206;SDS011;9229;52.354;20.886;2024-01-10T17:59:19;59.22;;;21.05;;
18206;SDS011;9229;52.354;20.886;2024-01-10T18:04:35;70.82;;;22.25;;
18206;SDS011;9229;52.354;20.886;2024-01-10T18:09:47;75.22;;;23.00;;
18206;SDS011;9229;52.354;20.886;2024-01-10T18:20:44;97.65;;;26.88;;
18206;SDS011;9229;52.354;20.886;2024-01-10T18:25:50;86.35;;;28.33;;
18206;SDS011;9229;52.354;20.886;2024-01-10T18:30:53;94.45;;;31.70;;
18206;SDS011;9229;52.354;20.886;2024-01-10T18:35:55;64.10;;;23.52;;
18206;SDS011;9229;52.354;20.886;2024-01-10T18:40:57;125.88;;;36.42;;
18206;SDS011;9229;52.354;20.886;2024-01-10T18:46:01;91.15;;;27.85;;
18206;SDS011;9229;52.354;20.886;2024-01-10T18:51:03;86.85;;;27.33;;
18206;SDS011;9229;52.354;20.886;2024-01-10T18:56:08;91.32;;;28.10;;
18206;SDS011;9229;52.354;20.886;2024-01-10T19:01:12;82.28;;;25.27;;
18206;SDS011;9229;52.354;20.886;2024-01-10T19:06:14;90.13;;;25.95;;
18206;SDS011;9229;52.354;20.886;2024-01-10T19:11:16;76.63;;;24.25;;
18206;SDS011;9229;52.354;20.886;2024-01-10T19:16:20;83.90;;;24.98;;
18206;SDS011;9229;52.354;20.886;2024-01-10T19:21:27;65.38;;;22.02;;
18206;SDS011;9229;52.354;20.886;2024-01-10T19:26:30;77.28;;;21.17;;
18206;SDS011;9229;52.354;20.886;2024-01-10T19:31:34;74.05;;;20.40;;
18206;SDS011;9229;52.354;20.886;2024-01-10T19:36:36;72.63;;;21.15;;
18206;SDS011;9229;52.354;20.886;2024-01-10T19:41:39;69.40;;;20.83;;
18206;SDS011;9229;52.354;20.886;2024-01-10T19:46:43;79.25;;;22.27;;
18206;SDS011;9229;52.354;20.886;2024-01-10T19:51:46;66.32;;;20.90;;
18206;SDS011;9229;52.354;20.886;2024-01-10T19:56:48;58.85;;;20.00;;
18206;SDS011;9229;52.354;20.886;2024-01-10T20:01:51;67.15;;;19.52;;
18206;SDS011;9229;52.354;20.886;2024-01-10T20:06:54;64.10;;;21.58;;
18206;SDS011;9229;52.354;20.886;2024-01-10T20:11:56;68.00;;;19.77;;
18206;SDS011;9229;52.354;20.886;2024-01-10T20:17:00;66.10;;;20.08;;
18206;SDS011;9229;52.354;20.886;2024-01-10T20:22:03;50.83;;;19.75;;
18206;SDS011;9229;52.354;20.886;2024-01-10T20:27:05;58.42;;;21.30;;
18206;SDS011;9229;52.354;20.886;2024-01-10T20:32:10;58.65;;;21.20;;
18206;SDS011;9229;52.354;20.886;2024-01-10T20:37:12;54.20;;;18.98;;
18206;SDS011;9229;52.354;20.886;2024-01-10T20:42:17;56.22;;;20.52;;
18206;SDS011;9229;52.354;20.886;2024-01-10T20:47:25;66.20;;;20.25;;
18206;SDS011;9229;52.354;20.886;2024-01-10T20:52:28;75.10;;;22.73;;
18206;SDS011;9229;52.354;20.886;2024-01-10T20:57:31;65.45;;;20.67;;
18206;SDS011;9229;52.354;20.886;2024-01-10T21:02:34;67.63;;;22.08;;
18206;SDS011;9229;52.354;20.886;2024-01-10T21:07:38;74.75;;;21.50;;
18206;SDS011;9229;52.354;20.886;2024-01-10T21:12:40;60.38;;;19.58;;
18206;SDS011;9229;52.354;20.886;2024-01-10T21:17:44;59.92;;;20.02;;
18206;SDS011;9229;52.354;20.886;2024-01-10T21:22:46;45.72;;;18.00;;
18206;SDS011;9229;52.354;20.886;2024-01-10T21:27:48;44.13;;;17.70;;
18206;SDS011;9229;52.354;20.886;2024-01-10T21:32:51;46.80;;;17.85;;
18206;SDS011;9229;52.354;20.886;2024-01-10T21:37:54;60.22;;;18.48;;
18206;SDS011;9229;52.354;20.886;2024-01-10T21:42:56;52.67;;;19.85;;
18206;SDS011;9229;52.354;20.886;2024-01-10T21:48:00;45.00;;;18.77;;
18206;SDS011;9229;52.354;20.886;2024-01-10T21:53:02;52.00;;;18.23;;
18206;SDS011;9229;52.354;20.886;2024-01-10T21:58:04;51.25;;;18.15;;
18206;SDS011;9229;52.354;20.886;2024-01-10T22:03:08;52.67;;;17.40;;
18206;SDS011;9229;52.354;20.886;2024-01-10T22:08:10;65.43;;;21.23;;
18206;SDS011;9229;52.354;20.886;2024-01-10T22:13:12;57.22;;;21.02;;
18206;SDS011;9229;52.354;20.886;2024-01-10T22:18:15;68.68;;;23.02;;
18206;SDS011;9229;52.354;20.886;2024-01-10T22:23:18;71.53;;;24.38;;
18206;SDS011;9229;52.354;20.886;2024-01-10T22:28:20;64.45;;;23.60;;
18206;SDS011;9229;52.354;20.886;2024-01-10T22:33:23;79.57;;;25.55;;
18206;SDS011;9229;52.354;20.886;2024-01-10T22:38:25;70.65;;;22.90;;
18206;SDS011;9229;52.354;20.886;2024-01-10T22:43:27;67.93;;;23.42;;
18206;SDS011;9229;52.354;20.886;2024-01-10T22:48:31;67.32;;;25.50;;
18206;SDS011;9229;52.354;20.886;2024-01-10T22:53:35;68.63;;;23.58;;
18206;SDS011;9229;52.354;20.886;2024-01-10T22:58:37;64.63;;;21.70;;
18206;SDS011;9229;52.354;20.886;2024-01-10T23:03:45;76.45;;;25.98;;
18206;SDS011;9229;52.354;20.886;2024-01-10T23:08:47;66.90;;;21.52;;
18206;SDS011;9229;52.354;20.886;2024-01-10T23:13:49;59.75;;;22.38;;
18206;SDS011;9229;52.354;20.886;2024-01-10T23:18:52;86.43;;;26.58;;
18206;SDS011;9229;52.354;20.886;2024-01-10T23:23:55;58.80;;;23.60;;
18206;SDS011;9229;52.354;20.886;2024-01-10T23:28:57;59.92;;;22.95;;
18206;SDS011;9229;52.354;20.886;2024-01-10T23:34:00;68.43;;;22.25;;
18206;SDS011;9229;52.354;20.886;2024-01-10T23:39:02;85.03;;;25.10;;
18206;SDS011;9229;52.354;20.886;2024-01-10T23:44:04;70.60;;;22.45;;
18206;SDS011;9229;52.354;20.886;2024-01-10T23:49:08;68.72;;;23.25;;
18206;SDS011;9229;52.354;20.886;2024-01-10T23:54:10;65.95;;;22.67;;
18206;SDS011;9229;52.354;20.886;2024-01-10T23:59:12;56.63;;;22.52;;
